Aviation Digital Data Service (ADDS)

Output produced by METARs form (2134 UTC 01 October 2022)
found at http://www.aviationweather.gov/metar/data/
 
Forecast for: AMD
Text: TAF AMD EGHI 011804Z 0118/0122 23008KT 9999 SCT040
Forecast period: 1800 to 2200 UTC 01 October 2022
Forecast type: FROM: standard forecast or significant change
Winds: from the SW (230 degrees) at 9 MPH (8 knots; 4.1 m/s)
Visibility: 6 or more miles (10+ km)
Ceiling: at least 12,000 feet AGL
Clouds: scattered clouds at 4000 feet AGL
Weather: no significant weather forecast for this period
Text: TEMPO 0118/0119 24015G25KT 8000 -SHRA
Forecast period: 1800 to 1900 UTC 01 October 2022
Forecast type: TEMPORARY: The following changes expected for less than half the time period
Winds: from the WSW (240 degrees) at 17 MPH (15 knots; 7.7 m/s)
gusting to 29 MPH (25 knots; 12.9 m/s)
Visibility: 5 miles (8 km)
Ceiling: unknown
Clouds: missing
Weather: -SHRA  (light rain showers)

Forecast for: EGHH (BOURNEMOUTH AIRP, GB)
Text: TAF EGHH 011957Z 0121/0124 25008KT 9999 FEW030
Forecast period: 2100 UTC 01 October 2022 to 0000 UTC 02 October 2022
Forecast type: FROM: standard forecast or significant change
Winds: from the WSW (250 degrees) at 9 MPH (8 knots; 4.1 m/s)
Visibility: 6 or more miles (10+ km)
Ceiling: at least 12,000 feet AGL
Clouds: few clouds at 3000 feet AGL
Weather: no significant weather forecast for this period
Text: TEMPO 0121/0124 7000 RA
Forecast period: 2100 UTC 01 October 2022 to 0000 UTC 02 October 2022
Forecast type: TEMPORARY: The following changes expected for less than half the time period
Visibility: 4 miles (7 km)
Ceiling: unknown
Clouds: missing
Weather: RA  (moderate rain)

Forecast for: EGKA (SHOREHAM-BY-SEA , GB)
Text: TAF EGKA 011355Z 0115/0119 26009KT CAVOK
Forecast period: 1500 to 1900 UTC 01 October 2022
Forecast type: FROM: standard forecast or significant change
Winds: from the W (260 degrees) at 10 MPH (9 knots; 4.6 m/s)
Visibility: 6 or more miles (10+ km)
Ceiling: unknown
Clouds: missing
Weather: NSW  (no significant weather)
Text: PROB30
Forecast period: 1500 to 1700 UTC 01 October 2022
Forecast type: TEMPORARY: The following changes expected for less than half the time period
Winds: from the W (260 degrees) at 17 MPH (15 knots; 7.7 m/s)
gusting to 16 MPH (14 knots; 7.2 m/s)
Visibility: 6 miles (9 km)
Ceiling: unknown
Clouds: missing
Weather: SHRA  (rain showers)